Time;durP1;ratioP1;P1;durP2;ratioP2;P2;SDS_P1;SDS_P2;PMS_P1;PMS_P2;Temp;Humidity;BMP_temperature;BMP_pressure;BME280_temperature;BME280_humidity;BME280_pressure;Samples;Min_cycle;Max_cycle;Signal;HPM_P1;HPM_P2
2021/11/13 00:01:49;;;;;;;62.30;26.77;;;;;;;5.73;94.82;100851.22;1820840;78;25679;-64
2021/11/13 00:04:16;;;;;;;55.43;25.90;;;;;;;5.72;94.78;100843.42;1738010;82;25678;-64
2021/11/13 00:06:42;;;;;;;62.58;25.75;;;;;;;5.73;95.13;100836.45;1820780;78;25365;-65
2021/11/13 00:09:10;;;;;;;57.93;25.55;;;;;;;5.73;94.86;100849.08;1820864;78;29533;-64
2021/11/13 00:11:37;;;;;;;61.85;25.88;;;;;;;5.74;94.99;100848.02;1820686;78;25679;-64
2021/11/13 00:14:04;;;;;;;58.08;24.87;;;;;;;5.75;95.03;100845.05;1738197;82;25634;-64
2021/11/13 00:16:34;;;;;;;57.65;25.02;;;;;;;5.78;95.14;100845.86;1820754;78;25626;-64
2021/11/13 00:19:01;;;;;;;63.55;25.48;;;;;;;5.78;95.12;100836.47;1820949;78;25644;-64
2021/11/13 00:21:29;;;;;;;57.67;25.23;;;;;;;5.82;95.08;100835.95;1738274;82;27343;-63
2021/11/13 00:23:55;;;;;;;62.27;25.88;;;;;;;5.81;95.03;100835.15;1820644;78;27154;-63
2021/11/13 00:26:22;;;;;;;61.77;26.62;;;;;;;5.82;95.09;100835.95;1820766;78;25755;-63
2021/11/13 00:28:49;;;;;;;65.08;28.25;;;;;;;5.82;95.01;100829.23;1799769;78;25618;-64
2021/11/13 00:31:16;;;;;;;61.90;26.85;;;;;;;5.83;95.07;100823.61;1738294;82;25468;-64
2021/11/13 00:33:43;;;;;;;62.45;27.42;;;;;;;5.84;95.05;100824.41;1820605;78;27364;-64
2021/11/13 00:36:09;;;;;;;64.32;29.30;;;;;;;5.86;95.13;100824.97;1820629;78;25587;-64
2021/11/13 00:38:36;;;;;;;65.50;27.70;;;;;;;5.86;95.13;100830.34;1820797;78;25610;-64
2021/11/13 00:41:03;;;;;;;58.38;26.68;;;;;;;5.87;95.12;100834.08;1737989;82;25599;-64
2021/11/13 00:43:30;;;;;;;67.03;30.35;;;;;;;5.88;95.04;100836.25;1820848;78;25644;-65
2021/11/13 00:45:56;;;;;;;62.55;27.13;;;;;;;5.88;95.10;100837.05;1820785;78;29533;-64
2021/11/13 00:48:23;;;;;;;61.80;27.22;;;;;;;5.90;95.11;100828.73;1820631;78;25593;-65
2021/11/13 00:50:50;;;;;;;62.43;28.23;;;;;;;5.93;95.08;100828.20;1738233;81;26231;-64
2021/11/13 00:53:18;;;;;;;60.75;27.40;;;;;;;5.94;95.05;100825.26;1820801;78;25722;-64
2021/11/13 00:55:45;;;;;;;60.45;27.37;;;;;;;5.96;95.18;100822.34;1820509;78;25551;-63
2021/11/13 00:58:12;;;;;;;56.00;27.20;;;;;;;5.95;94.99;100826.06;1738092;82;27324;-65
2021/11/13 01:00:38;;;;;;;52.98;26.45;;;;;;;5.95;95.01;100833.56;1820592;78;25635;-64
2021/11/13 01:03:05;;;;;;;62.38;26.82;;;;;;;5.98;95.09;100833.63;1820608;78;25667;-64
2021/11/13 01:05:32;;;;;;;59.93;26.42;;;;;;;6.01;95.10;100828.23;1820571;78;25588;-65
2021/11/13 01:07:58;;;;;;;61.65;25.25;;;;;;;6.05;95.07;100822.63;1738010;82;25688;-63
2021/11/13 01:10:25;;;;;;;58.80;24.87;;;;;;;6.05;94.93;100814.57;1820494;78;27310;-63
2021/11/13 01:12:52;;;;;;;66.25;28.42;;;;;;;6.04;94.98;100819.66;1738063;82;25464;-63
2021/11/13 01:15:20;;;;;;;64.32;28.20;;;;;;;6.00;94.88;100807.84;1820613;78;25693;-63
2021/11/13 01:17:47;;;;;;;58.20;27.13;;;;;;;5.97;94.80;100808.62;1820574;78;25752;-63
2021/11/13 01:20:16;;;;;;;61.53;26.60;;;;;;;5.98;94.81;100814.28;1738094;82;25638;-63
2021/11/13 01:22:44;;;;;;;67.08;29.75;;;;;;;5.96;94.82;100810.26;1820870;78;27382;-63
2021/11/13 01:25:11;;;;;;;67.92;28.02;;;;;;;6.01;94.94;100813.47;1820364;78;25726;-63
2021/11/13 01:27:38;;;;;;;61.30;27.05;;;;;;;5.99;94.88;100812.39;1820816;78;25440;-65
2021/11/13 01:30:07;;;;;;;65.20;28.47;;;;;;;5.98;94.87;100812.94;1820786;78;26234;-65
2021/11/13 01:32:34;;;;;;;61.13;26.30;;;;;;;5.98;94.80;100818.30;1820893;78;25455;-65
2021/11/13 01:35:00;;;;;;;60.28;27.13;;;;;;;5.96;94.65;100815.63;1820806;78;27311;-64
2021/11/13 01:37:27;;;;;;;59.45;26.40;;;;;;;5.94;94.67;100818.55;1820614;78;25404;-64
2021/11/13 01:39:53;;;;;;;66.12;29.80;;;;;;;5.91;94.65;100804.84;1820739;78;25605;-64
2021/11/13 01:42:25;;;;;;;69.90;29.05;;;;;;;5.89;94.80;100801.59;1820720;78;25437;-64
2021/11/13 01:44:48;;;;;;;66.37;28.20;;;;;;;5.88;94.77;100800.00;1820239;78;25557;-62
2021/11/13 01:47:15;;;;;;;65.90;27.98;;;;;;;5.87;94.83;100794.34;1820596;78;27325;-64
2021/11/13 01:49:41;;;;;;;68.05;27.52;;;;;;;5.86;94.80;100798.92;1820682;78;25759;-65
2021/11/13 01:52:14;;;;;;;73.42;30.00;;;;;;;5.85;95.02;100799.18;1820788;78;25610;-65
2021/11/13 01:54:44;;;;;;;70.65;28.40;;;;;;;5.81;95.11;100792.20;1820527;78;25710;-63
2021/11/13 01:57:20;;;;;;;63.98;28.12;;;;;;;5.79;94.94;100783.06;1738313;81;25576;-63
2021/11/13 01:59:41;;;;;;;68.07;29.90;;;;;;;5.80;95.04;100779.83;1820998;78;27322;-63
2021/11/13 02:02:09;;;;;;;68.72;28.50;;;;;;;5.82;95.04;100784.39;1825993;77;25435;-63
2021/11/13 02:04:35;;;;;;;67.42;28.75;;;;;;;5.84;95.07;100780.11;1823691;78;25602;-63
2021/11/13 02:07:03;;;;;;;66.80;28.00;;;;;;;5.83;95.07;100776.63;1735356;82;25620;-63
2021/11/13 02:09:30;;;;;;;64.50;27.48;;;;;;;5.80;94.97;100777.15;1824106;78;25432;-63
2021/11/13 02:11:57;;;;;;;66.57;28.67;;;;;;;5.76;94.85;100788.95;1738955;81;27465;-63
2021/11/13 02:14:27;;;;;;;62.20;26.50;;;;;;;5.73;94.86;100791.36;1823435;78;25644;-63
2021/11/13 02:16:54;;;;;;;62.25;26.65;;;;;;;5.72;94.83;100788.39;1822871;78;25676;-63
2021/11/13 02:19:20;;;;;;;62.50;27.35;;;;;;;5.69;94.83;100784.92;1823557;78;27778;-63
2021/11/13 02:21:47;;;;;;;65.55;26.15;;;;;;;5.67;94.77;100781.16;1735250;82;25550;-63
2021/11/13 02:24:14;;;;;;;61.95;27.20;;;;;;;5.66;94.87;100780.08;1823955;78;27317;-63
2021/11/13 02:26:41;;;;;;;70.52;29.00;;;;;;;5.66;94.96;100772.02;1823663;78;25605;-63
2021/11/13 02:29:08;;;;;;;73.15;28.87;;;;;;;5.65;95.00;100777.11;1823669;78;25669;-65
2021/11/13 02:31:46;;;;;;;66.80;29.05;;;;;;;5.63;95.03;100769.31;1823474;78;25605;-65
2021/11/13 02:34:13;;;;;;;72.75;28.70;;;;;;;5.65;95.09;100772.53;1823155;78;25613;-63
2021/11/13 02:36:41;;;;;;;73.12;29.27;;;;;;;5.66;95.19;100774.70;1735067;82;27336;-64
2021/11/13 02:39:11;;;;;;;81.67;31.10;;;;;;;5.66;95.12;100772.02;1823813;78;25553;-63
2021/11/13 02:41:42;;;;;;;76.72;30.20;;;;;;;5.68;95.11;100768.53;1735444;82;25655;-63
2021/11/13 02:44:08;;;;;;;66.72;28.92;;;;;;;5.69;95.16;100772.30;1823677;77;26150;-63
2021/11/13 02:46:35;;;;;;;72.30;28.85;;;;;;;5.67;95.06;100765.05;1823630;78;25683;-63
2021/11/13 02:49:03;;;;;;;69.92;28.42;;;;;;;5.68;95.15;100763.16;1735316;82;27886;-63
2021/11/13 02:51:30;;;;;;;78.35;29.02;;;;;;;5.67;95.00;100765.56;1824005;78;25601;-63
2021/11/13 02:53:56;;;;;;;76.42;29.95;;;;;;;5.67;95.11;100764.22;1823488;78;25962;-63
2021/11/13 02:56:23;;;;;;;75.57;31.23;;;;;;;5.68;95.15;100761.83;1823459;78;25979;-63
2021/11/13 02:58:51;;;;;;;72.75;29.37;;;;;;;5.69;95.19;100759.42;1735264;82;25539;-64
2021/11/13 03:01:22;;;;;;;78.72;31.82;;;;;;;5.69;95.21;100754.85;1819589;78;27383;-64
2021/11/13 03:03:52;;;;;;;72.12;30.55;;;;;;;5.70;95.29;100748.94;1829192;78;25643;-62
2021/11/13 03:06:20;;;;;;;83.50;30.25;;;;;;;5.66;95.20;100747.32;1829397;78;25543;-64
2021/11/13 03:08:50;;;;;;;78.25;29.37;;;;;;;5.69;95.29;100756.73;1829151;78;26175;-62
2021/11/13 03:11:19;;;;;;;76.35;31.33;;;;;;;5.70;95.53;100751.63;1829307;78;25411;-63
2021/11/13 03:13:50;;;;;;;82.05;31.12;;;;;;;5.69;95.31;100750.03;1829378;78;26859;-64
2021/11/13 03:16:19;;;;;;;75.12;30.70;;;;;;;5.68;95.33;100758.59;1829041;78;25605;-62
2021/11/13 03:18:46;;;;;;;71.97;30.97;;;;;;;5.68;95.43;100759.14;1829269;78;25613;-63
2021/11/13 03:21:13;;;;;;;77.72;31.07;;;;;;;5.68;95.54;100757.80;1829287;78;25790;-63
2021/11/13 03:23:44;;;;;;;73.22;30.68;;;;;;;5.67;95.55;100755.66;1740099;82;25558;-63
2021/11/13 03:26:21;;;;;;;70.80;30.95;;;;;;;5.67;95.85;100752.14;1773694;80;27322;-63
2021/11/13 03:28:52;;;;;;;80.53;29.98;;;;;;;5.68;95.81;100751.09;1736344;81;25498;-63
2021/11/13 03:31:23;;;;;;;81.28;31.85;;;;;;;5.66;95.66;100751.34;1812027;78;25563;-63
2021/11/13 03:33:48;;;;;;;73.12;28.30;;;;;;;5.67;95.71;100745.44;1741769;82;27827;-63
2021/11/13 03:36:17;;;;;;;76.00;32.48;;;;;;;5.68;95.79;100745.72;1773600;80;25630;-63
2021/11/13 03:38:43;;;;;;;70.95;30.48;;;;;;;5.69;95.75;100742.77;1737506;81;28097;-63
2021/11/13 03:41:10;;;;;;;76.12;31.35;;;;;;;5.69;95.71;100740.09;1813317;79;25655;-64
2021/11/13 03:43:38;;;;;;;87.37;32.28;;;;;;;5.71;95.72;100743.85;1826332;78;25652;-63
2021/11/13 03:46:07;;;;;;;77.15;31.55;;;;;;;5.73;95.88;100745.73;1813227;79;26251;-62
2021/11/13 03:48:34;;;;;;;;;;;;;;;5.71;95.72;100750.56;1816026;78;25655;-63
2021/11/13 03:51:00;;;;;;;66.20;29.45;;;;;;;5.71;95.64;100747.88;1815510;78;27124;-63
2021/11/13 03:53:27;;;;;;;76.70;30.20;;;;;;;5.70;95.70;100744.91;1828990;78;25754;-63
2021/11/13 03:55:53;;;;;;;78.33;30.57;;;;;;;5.70;95.69;100744.91;1829122;78;25551;-63
2021/11/13 03:58:20;;;;;;;72.67;29.75;;;;;;;5.73;95.75;100744.39;1829154;78;25690;-65
2021/11/13 04:00:49;;;;;;;75.55;29.75;;;;;;;5.74;95.74;100742.78;1828755;78;25625;-65
2021/11/13 04:03:16;;;;;;;71.72;29.80;;;;;;;5.74;95.67;100733.94;1823723;78;27458;-64
2021/11/13 04:05:43;;;;;;;71.95;28.85;;;;;;;5.75;95.71;100736.33;1823586;78;25631;-64
2021/11/13 04:08:10;;;;;;;75.45;29.72;;;;;;;5.74;95.61;100737.42;1823621;78;25708;-63
2021/11/13 04:10:36;;;;;;;74.25;30.08;;;;;;;5.74;95.57;100736.62;1735246;82;25579;-62
2021/11/13 04:13:03;;;;;;;72.53;28.85;;;;;;;5.73;95.54;100734.99;1824305;78;25456;-64
2021/11/13 04:15:29;;;;;;;69.90;28.32;;;;;;;5.73;95.57;100743.05;1823472;78;27946;-63
2021/11/13 04:17:56;;;;;;;70.57;30.00;;;;;;;5.72;95.54;100736.88;1823677;78;27113;-63
2021/11/13 04:20:23;;;;;;;61.60;26.85;;;;;;;5.72;95.63;100728.00;1735040;82;25370;-63
2021/11/13 04:22:50;;;;;;;63.05;27.42;;;;;;;5.70;95.55;100726.92;1738003;82;25710;-63
2021/11/13 04:25:19;;;;;;;78.40;31.62;;;;;;;5.68;95.37;100725.59;1729247;83;25628;-63
2021/11/13 04:27:47;;;;;;;72.83;29.60;;;;;;;5.67;95.54;100718.08;1752363;81;27433;-65
2021/11/13 04:30:16;;;;;;;64.22;28.42;;;;;;;5.65;95.52;100714.83;1814871;78;25715;-65
2021/11/13 04:32:45;;;;;;;66.22;29.95;;;;;;;5.65;95.54;100716.72;1815593;78;25460;-64
2021/11/13 04:37:55;;;;;;;61.23;26.15;;;;;;;5.60;95.53;100721.02;1823668;78;25541;-63
2021/11/13 04:40:29;;;;;;;71.00;27.22;;;;;;;5.60;95.48;100722.36;1823857;78;27326;-64
2021/11/13 04:42:56;;;;;;;62.13;27.07;;;;;;;5.58;95.59;100728.53;1823224;78;25601;-65
2021/11/13 04:45:23;;;;;;;70.60;29.05;;;;;;;5.56;95.43;100727.17;1823497;78;25708;-65
2021/11/13 04:47:50;;;;;;;70.97;28.73;;;;;;;5.53;95.43;100728.49;1823695;78;25625;-63
2021/11/13 04:50:21;;;;;;;74.03;29.70;;;;;;;5.53;95.46;100728.49;1735537;82;25627;-64
2021/11/13 04:52:49;;;;;;;70.05;31.30;;;;;;;5.52;95.54;100720.19;1823919;78;27325;-65
2021/11/13 04:55:17;;;;;;;73.02;30.75;;;;;;;5.54;95.66;100721.27;1823766;78;26099;-65
2021/11/13 04:57:44;;;;;;;74.60;31.62;;;;;;;5.54;95.64;100722.06;1736352;82;25556;-66
2021/11/13 05:00:14;;;;;;;73.57;30.12;;;;;;;5.55;95.55;100718.33;1818888;78;26506;-64
2021/11/13 05:02:41;;;;;;;73.45;30.00;;;;;;;5.56;95.68;100724.48;1828787;78;25857;-64
2021/11/13 05:05:09;;;;;;;81.85;32.25;;;;;;;5.57;95.59;100726.11;1822888;78;27450;-64
2021/11/13 05:07:35;;;;;;;78.95;30.45;;;;;;;5.57;95.63;100724.77;1820558;78;25379;-63
2021/11/13 05:10:03;;;;;;;81.30;30.48;;;;;;;5.59;95.67;100726.10;1820806;78;25523;-64
2021/11/13 05:12:29;;;;;;;73.80;31.12;;;;;;;5.62;95.71;100718.08;1820741;78;25617;-65
2021/11/13 05:14:56;;;;;;;81.97;31.23;;;;;;;5.63;95.59;100714.84;1820577;78;25600;-65
2021/11/13 05:17:22;;;;;;;77.27;30.70;;;;;;;5.65;95.57;100719.41;1738157;82;27319;-63
2021/11/13 05:19:49;;;;;;;69.77;29.67;;;;;;;5.68;95.80;100704.91;1820690;78;25502;-63
2021/11/13 05:22:15;;;;;;;71.85;29.50;;;;;;;5.67;95.38;100709.20;1820729;78;25263;-64
2021/11/13 05:24:42;;;;;;;69.00;29.23;;;;;;;5.68;95.36;100713.51;1820692;78;25638;-62
2021/11/13 05:27:09;;;;;;;67.47;28.52;;;;;;;5.66;95.28;100703.04;1820843;78;25697;-62
2021/11/13 05:29:36;;;;;;;69.15;30.00;;;;;;;5.67;95.28;100707.34;1738003;82;27339;-62
2021/11/13 05:32:03;;;;;;;66.92;27.05;;;;;;;5.67;95.30;100711.37;1820891;78;25544;-63
2021/11/13 05:34:30;;;;;;;72.42;28.55;;;;;;;5.69;95.52;100708.42;1820752;78;25630;-64
2021/11/13 05:36:56;;;;;;;63.38;27.27;;;;;;;5.70;95.31;100714.84;1820753;78;26464;-63
2021/11/13 05:39:23;;;;;;;63.83;26.05;;;;;;;5.72;95.29;100715.92;1820877;78;25357;-63
2021/11/13 05:41:49;;;;;;;67.30;28.52;;;;;;;5.73;95.29;100722.91;1820876;78;28311;-63
2021/11/13 05:44:16;;;;;;;65.75;25.35;;;;;;;5.75;95.29;100735.53;1820585;78;25727;-64
2021/11/13 05:46:44;;;;;;;73.67;27.42;;;;;;;5.77;95.55;100733.38;1820759;78;25617;-62
2021/11/13 05:49:11;;;;;;;75.60;26.75;;;;;;;5.77;95.28;100730.18;1820779;78;25729;-62
2021/11/13 05:51:37;;;;;;;71.45;28.45;;;;;;;5.78;95.25;100725.06;1820550;78;25575;-64
2021/11/13 05:54:04;;;;;;;72.62;30.25;;;;;;;5.77;95.52;100722.64;1820785;78;27517;-64
2021/11/13 05:56:31;;;;;;;70.75;27.40;;;;;;;5.78;95.34;100725.61;1820552;78;25672;-65
2021/11/13 05:58:58;;;;;;;77.27;28.80;;;;;;;5.75;95.25;100710.03;1820661;78;25561;-65
2021/11/13 06:01:25;;;;;;;71.92;28.00;;;;;;;5.78;95.26;100708.95;1820839;78;26150;-63
2021/11/13 06:03:51;;;;;;;70.03;29.95;;;;;;;5.78;95.23;100712.98;1826970;78;25645;-62
2021/11/13 06:06:18;;;;;;;67.05;28.40;;;;;;;5.79;95.15;100715.15;1826765;78;28252;-63
2021/11/13 06:08:45;;;;;;;71.47;29.00;;;;;;;5.79;95.11;100726.69;1743156;82;25453;-63
2021/11/13 06:11:11;;;;;;;71.22;28.40;;;;;;;5.81;95.01;100731.80;1735426;81;25451;-63
2021/11/13 06:13:38;;;;;;;70.45;27.73;;;;;;;5.80;95.07;100735.54;1823566;78;25703;-63
2021/11/13 06:16:08;;;;;;;72.35;29.42;;;;;;;5.83;94.99;100746.30;1823568;78;25717;-63
2021/11/13 06:18:36;;;;;;;73.28;29.85;;;;;;;5.84;94.97;100755.94;1823920;78;27325;-63
2021/11/13 06:21:05;;;;;;;69.25;28.52;;;;;;;5.84;94.95;100755.94;1823376;78;25791;-63
2021/11/13 06:23:38;;;;;;;70.30;27.90;;;;;;;5.84;94.91;100759.45;1823343;78;25693;-64
2021/11/13 06:26:06;;;;;;;73.05;29.07;;;;;;;5.86;94.89;100762.67;1824035;78;25672;-64
2021/11/13 06:28:34;;;;;;;62.03;25.92;;;;;;;5.88;94.89;100751.67;1735192;82;25578;-63
2021/11/13 06:31:00;;;;;;;71.42;28.73;;;;;;;5.90;94.90;100749.52;1823590;78;27318;-63
2021/11/13 06:33:26;;;;;;;64.55;27.40;;;;;;;5.92;94.86;100746.03;1823445;78;25585;-63
2021/11/13 06:35:54;;;;;;;66.53;28.12;;;;;;;5.91;94.72;100741.20;1735265;82;25708;-63
2021/11/13 06:38:21;;;;;;;65.20;28.35;;;;;;;5.90;94.52;100721.33;1823859;78;25662;-63
2021/11/13 06:40:47;;;;;;;68.90;27.13;;;;;;;5.89;94.60;100735.81;1823817;78;25630;-63
2021/11/13 06:43:14;;;;;;;67.80;28.02;;;;;;;5.88;94.50;100731.53;1823605;78;27421;-63
2021/11/13 06:45:41;;;;;;;67.53;27.70;;;;;;;5.89;94.56;100727.25;1823675;78;25609;-63
2021/11/13 06:48:08;;;;;;;67.53;29.35;;;;;;;5.86;94.50;100725.09;1735645;82;25418;-63
2021/11/13 06:50:36;;;;;;;62.80;28.20;;;;;;;5.89;94.48;100733.95;1735261;81;25682;-63
2021/11/13 06:53:03;;;;;;;63.52;27.82;;;;;;;5.91;94.64;100739.06;1823975;78;25595;-63
2021/11/13 06:55:31;;;;;;;65.03;29.07;;;;;;;5.90;94.48;100743.61;1823621;78;27314;-63
2021/11/13 06:57:58;;;;;;;62.75;29.07;;;;;;;5.93;94.62;100755.16;1823567;78;25820;-65
2021/11/13 07:00:26;;;;;;;62.33;27.50;;;;;;;5.97;94.72;100785.00;1823816;78;25460;-63
2021/11/13 07:02:53;;;;;;;68.07;29.02;;;;;;;5.97;94.49;100787.69;1823752;78;25569;-63
2021/11/13 07:05:20;;;;;;;64.97;29.02;;;;;;;5.98;94.46;100779.91;1823611;78;26222;-63
2021/11/13 07:07:47;;;;;;;62.33;27.82;;;;;;;6.01;94.48;100760.59;1735465;82;27964;-63
2021/11/13 07:10:16;;;;;;;68.57;28.27;;;;;;;6.06;94.53;100774.02;1820307;78;25700;-63
2021/11/13 07:12:44;;;;;;;69.27;28.90;;;;;;;6.04;94.34;100760.03;1823786;78;25719;-63
2021/11/13 07:15:12;;;;;;;67.82;29.30;;;;;;;6.07;94.23;100763.53;1823708;78;25745;-64
2021/11/13 07:17:39;;;;;;;65.17;27.75;;;;;;;6.08;94.20;100765.67;1823779;78;25403;-64
2021/11/13 07:20:08;;;;;;;69.45;30.70;;;;;;;6.09;94.07;100768.09;1823799;78;28035;-63
2021/11/13 07:22:36;;;;;;;77.67;31.17;;;;;;;6.11;94.04;100774.03;1735160;82;25665;-63
2021/11/13 07:25:11;;;;;;;64.82;28.85;;;;;;;6.11;94.05;100776.72;1735561;82;25655;-64
2021/11/13 07:27:34;;;;;;;72.47;30.48;;;;;;;6.13;94.05;100784.48;1823118;78;26188;-64
2021/11/13 07:30:02;;;;;;;72.53;30.43;;;;;;;6.16;94.04;100783.44;1823875;78;25403;-63
2021/11/13 07:32:29;;;;;;;66.97;30.52;;;;;;;6.18;93.97;100799.29;1823702;78;27808;-64
2021/11/13 07:34:57;;;;;;;69.95;30.97;;;;;;;6.16;93.96;100792.84;1823445;78;25452;-63
2021/11/13 07:37:25;;;;;;;69.80;30.25;;;;;;;6.20;93.92;100785.56;1737065;82;25438;-62
2021/11/13 07:39:53;;;;;;;67.08;30.52;;;;;;;6.19;93.84;100764.62;1815718;78;25612;-62
2021/11/13 07:42:21;;;;;;;69.05;30.43;;;;;;;6.21;93.79;100759.78;1816443;78;25701;-62
2021/11/13 07:44:49;;;;;;;73.92;30.60;;;;;;;6.23;93.80;100747.42;1735244;82;27501;-63
2021/11/13 07:47:16;;;;;;;67.00;31.00;;;;;;;6.24;93.82;100746.36;1824338;78;25651;-64
2021/11/13 07:49:43;;;;;;;68.92;31.80;;;;;;;6.25;93.83;100744.75;1824276;78;25678;-62
2021/11/13 07:52:10;;;;;;;72.92;34.23;;;;;;;6.28;93.82;100736.68;1738911;82;25606;-62
2021/11/13 07:54:37;;;;;;;71.70;32.78;;;;;;;6.29;93.75;100735.07;1736575;82;25655;-62
2021/11/13 07:57:06;;;;;;;74.37;35.65;;;;;;;6.32;93.71;100737.22;1815503;79;27309;-64
2021/11/13 07:59:32;;;;;;;;;;;;;;;6.36;93.81;100743.66;1741518;82;27215;-64
2021/11/13 08:01:59;;;;;;;67.80;31.85;;;;;;;6.41;93.81;100738.03;1768452;81;25520;-63
2021/11/13 08:04:25;;;;;;;77.12;32.98;;;;;;;6.44;93.69;100730.78;1727640;82;25720;-62
2021/11/13 08:06:52;;;;;;;67.87;31.90;;;;;;;6.46;93.64;100731.31;1772616;80;25385;-62
2021/11/13 08:09:18;;;;;;;70.87;33.67;;;;;;;6.51;93.57;100726.72;1748534;81;27331;-63
2021/11/13 08:11:45;;;;;;;73.80;32.75;;;;;;;6.56;93.52;100721.09;1745610;80;25782;-64
2021/11/13 08:14:11;;;;;;;74.17;32.60;;;;;;;6.61;93.65;100720.53;1741431;81;25619;-62
2021/11/13 08:16:38;;;;;;;68.50;31.77;;;;;;;6.66;93.41;100721.87;1751212;80;26387;-62
2021/11/13 08:19:04;;;;;;;74.17;33.02;;;;;;;6.68;93.07;100717.56;1743395;82;26181;-63
2021/11/13 08:21:31;;;;;;;69.22;32.53;;;;;;;6.71;93.05;100718.37;1747375;81;27398;-63
2021/11/13 08:23:59;;;;;;;70.97;31.90;;;;;;;6.74;92.93;100715.11;1747191;81;26375;-63
2021/11/13 08:26:26;;;;;;;68.30;31.40;;;;;;;6.75;92.64;100719.42;1747279;82;25576;-63
2021/11/13 08:28:53;;;;;;;66.67;32.25;;;;;;;6.75;92.61;100710.02;1747365;81;25698;-65
2021/11/13 08:31:19;;;;;;;68.85;32.93;;;;;;;6.78;92.51;100706.79;1747349;82;25687;-64
2021/11/13 08:33:46;;;;;;;72.32;32.90;;;;;;;6.80;92.41;100714.58;1747302;81;27413;-65
2021/11/13 08:36:12;;;;;;;73.80;32.23;;;;;;;6.83;92.46;100711.35;1747233;82;27143;-64
2021/11/13 08:38:40;;;;;;;65.25;31.65;;;;;;;6.87;92.49;100713.75;1747318;82;25660;-61
2021/11/13 08:41:07;;;;;;;65.72;32.63;;;;;;;6.91;92.33;100708.08;1747292;82;25688;-64
2021/11/13 08:43:34;;;;;;;63.33;32.35;;;;;;;6.95;92.38;100702.44;1747202;82;25436;-62
2021/11/13 08:46:01;;;;;;;62.43;32.25;;;;;;;7.01;92.23;100697.83;1747186;82;27383;-63
2021/11/13 08:48:28;;;;;;;60.98;31.85;;;;;;;7.04;91.88;100699.98;1747330;82;25395;-63
2021/11/13 08:50:55;;;;;;;60.50;30.05;;;;;;;7.10;91.91;100700.23;1747256;82;25685;-64
2021/11/13 08:53:22;;;;;;;65.92;30.80;;;;;;;7.11;91.71;100697.79;1747341;82;25651;-64
2021/11/13 08:55:51;;;;;;;63.30;31.42;;;;;;;7.17;91.58;100698.05;1747173;82;25681;-62
2021/11/13 08:58:18;;;;;;;61.05;31.33;;;;;;;7.18;91.49;100706.36;1747199;81;28062;-63
2021/11/13 09:00:56;;;;;;;60.80;31.62;;;;;;;7.19;90.74;100707.19;1747275;82;25605;-64
2021/11/13 09:03:30;;;;;;;60.08;30.70;;;;;;;7.18;90.84;100705.02;1743243;82;25707;-62
2021/11/13 09:06:00;;;;;;;62.45;31.48;;;;;;;7.22;90.78;100706.61;1776864;80;25679;-62
2021/11/13 09:08:28;;;;;;;54.50;30.30;;;;;;;7.26;91.12;100705.80;1775014;80;25404;-64
2021/11/13 09:10:57;;;;;;;56.80;30.27;;;;;;;7.30;90.76;100706.04;1770558;80;27412;-64
2021/11/13 09:13:26;;;;;;;55.08;29.85;;;;;;;7.32;90.49;100706.59;1773060;79;25682;-64
2021/11/13 09:15:56;;;;;;;58.00;31.65;;;;;;;7.31;90.32;100703.62;1773887;80;25725;-64
2021/11/13 09:18:23;;;;;;;60.80;30.95;;;;;;;7.39;90.44;100704.40;1767219;80;26295;-62
2021/11/13 09:20:50;;;;;;;56.95;29.85;;;;;;;7.44;90.22;100709.75;1773904;80;25695;-64
2021/11/13 09:23:17;;;;;;;55.17;29.65;;;;;;;7.48;90.04;100704.06;1773447;80;27337;-64
2021/11/13 09:25:46;;;;;;;64.70;30.65;;;;;;;7.52;90.06;100702.97;1766093;79;25376;-64
2021/11/13 09:28:13;;;;;;;56.18;29.37;;;;;;;7.56;89.66;100705.91;1771841;80;25697;-64
2021/11/13 09:30:41;;;;;;;65.12;30.75;;;;;;;7.56;89.31;100701.86;1769558;80;26288;-64
2021/11/13 09:33:10;;;;;;;53.30;28.10;;;;;;;7.56;89.15;100702.69;1767583;80;25315;-62
2021/11/13 09:35:38;;;;;;;63.63;31.97;;;;;;;7.55;88.99;100702.41;1774883;80;27487;-62
2021/11/13 09:38:05;;;;;;;55.43;29.77;;;;;;;7.55;88.84;100707.80;1770740;80;25638;-62
2021/11/13 09:40:32;;;;;;;58.17;30.75;;;;;;;7.54;89.01;100708.87;1772080;80;25640;-62
2021/11/13 09:43:02;;;;;;;54.50;29.65;;;;;;;7.55;89.00;100706.45;1770232;80;26140;-62
2021/11/13 09:45:30;;;;;;;58.10;31.23;;;;;;;7.54;88.93;100700.00;1773245;80;25674;-64
2021/11/13 09:48:01;;;;;;;59.38;30.35;;;;;;;7.58;88.85;100701.06;1765982;80;27337;-62
2021/11/13 09:50:32;;;;;;;55.65;29.90;;;;;;;7.58;88.90;100703.77;1765208;81;25386;-62
2021/11/13 09:53:00;;;;;;;60.60;33.10;;;;;;;7.56;88.61;100697.31;1765326;80;25786;-62
2021/11/13 09:55:30;;;;;;;53.45;30.17;;;;;;;7.53;88.03;100693.02;1768433;80;25368;-62
2021/11/13 09:57:58;;;;;;;61.88;31.65;;;;;;;7.51;88.20;100685.75;1774874;80;25607;-64
2021/11/13 10:00:29;;;;;;;66.80;32.03;;;;;;;7.53;88.28;100680.36;1776088;80;27315;-63
2021/11/13 10:02:57;;;;;;;65.67;32.73;;;;;;;7.58;88.24;100667.42;1777720;79;25683;-63
2021/11/13 10:05:27;;;;;;;59.23;31.35;;;;;;;7.65;88.44;100670.59;1807186;79;25685;-62
2021/11/13 10:07:54;;;;;;;54.33;30.85;;;;;;;7.70;88.33;100677.84;1807139;79;25613;-62
2021/11/13 10:10:38;;;;;;;60.80;32.93;;;;;;;7.71;87.95;100668.11;1806825;79;25442;-62
2021/11/13 10:13:24;;;;;;;61.77;32.70;;;;;;;7.74;87.83;100658.68;1806998;79;27948;-63
2021/11/13 10:15:55;;;;;;;64.37;34.08;;;;;;;7.79;87.71;100652.70;1806868;79;27180;-63
2021/11/13 10:18:26;;;;;;;64.37;33.63;;;;;;;7.86;87.91;100663.95;1810024;79;25627;-62
2021/11/13 10:21:01;;;;;;;65.45;34.75;;;;;;;7.91;87.44;100661.77;1807643;79;25754;-63
2021/11/13 10:23:33;;;;;;;62.15;32.40;;;;;;;7.92;87.15;100655.86;1807101;79;25696;-63
2021/11/13 10:26:14;;;;;;;59.03;32.38;;;;;;;7.98;86.96;100656.06;1806894;79;27430;-63
2021/11/13 10:28:49;;;;;;;67.75;32.78;;;;;;;7.98;86.94;100658.76;1801747;79;25437;-63
2021/11/13 10:31:20;;;;;;;59.00;32.17;;;;;;;8.02;86.95;100653.87;1805931;79;25412;-63
2021/11/13 10:33:50;;;;;;;65.83;33.75;;;;;;;8.05;85.75;100664.61;1806812;79;27733;-62
2021/11/13 10:36:31;;;;;;;58.60;33.10;;;;;;;8.01;85.65;100656.30;1806988;79;25430;-63
2021/11/13 10:39:03;;;;;;;63.13;33.00;;;;;;;7.98;85.71;100660.11;1805349;79;27331;-63
2021/11/13 10:41:31;;;;;;;67.00;34.00;;;;;;;8.01;85.92;100650.11;1806599;79;27280;-63
2021/11/13 10:43:59;;;;;;;65.75;34.25;;;;;;;8.03;85.54;100651.42;1806991;79;25644;-62
2021/11/13 10:46:26;;;;;;;60.83;33.80;;;;;;;8.03;85.28;100649.28;1806821;79;25624;-63
2021/11/13 10:48:56;;;;;;;61.75;32.25;;;;;;;8.03;85.41;100646.04;1809673;78;25754;-62
2021/11/13 10:51:30;;;;;;;60.35;32.17;;;;;;;8.09;85.52;100653.55;1755495;81;27335;-63
2021/11/13 10:54:12;;;;;;;61.65;33.25;;;;;;;8.09;84.81;100645.98;1771928;81;25800;-64
2021/11/13 10:56:52;;;;;;;57.60;33.00;;;;;;;8.03;83.58;100644.69;1765342;81;25611;-63
2021/11/13 10:59:26;;;;;;;57.65;32.35;;;;;;;8.03;83.66;100649.28;1763768;81;25627;-65
2021/11/13 11:01:56;;;;;;;62.15;34.00;;;;;;;8.06;83.25;100646.03;1781404;79;25747;-64
2021/11/13 11:04:26;;;;;;;58.63;33.60;;;;;;;8.05;83.61;100644.41;1755687;80;27351;-68
2021/11/13 11:07:12;;;;;;;59.27;32.10;;;;;;;8.04;83.42;100642.27;1746865;82;25987;-68
2021/11/13 11:09:49;;;;;;;60.85;33.33;;;;;;;8.03;83.35;100642.55;1806892;79;25599;-70
2021/11/13 11:12:21;;;;;;;58.28;33.40;;;;;;;8.06;84.21;100638.50;1805256;78;25731;-68
2021/11/13 11:14:54;;;;;;;56.33;32.13;;;;;;;8.15;84.57;100630.84;1805272;78;25614;-70
2021/11/13 11:17:25;;;;;;;65.72;35.13;;;;;;;8.19;84.78;100636.50;1803628;79;27380;-69
2021/11/13 11:19:54;;;;;;;58.75;33.98;;;;;;;8.21;84.60;100634.31;1805091;78;25551;-70
2021/11/13 11:22:27;;;;;;;58.95;30.80;;;;;;;8.21;83.95;100634.31;1797963;79;25678;-70
2021/11/13 11:25:04;;;;;;;61.48;32.25;;;;;;;8.16;83.57;100637.05;1796657;79;25676;-70